Time;durP1;ratioP1;P1;durP2;ratioP2;P2;SDS_P1;SDS_P2;PMS_P1;PMS_P2;Temp;Humidity;BMP_temperature;BMP_pressure;BME280_temperature;BME280_humidity;BME280_pressure;Samples;Min_cycle;Max_cycle;Signal;HPM_P1;HPM_P2
2024/03/15 00:02:04;;;;;;;7.75;5.90;;;;;;;4.22;100.00;96434.59;5041755;28;20045;-73
2024/03/15 00:04:30;;;;;;;8.90;6.15;;;;;;;4.21;100.00;96432.97;5043898;28;20041;-74
2024/03/15 00:06:56;;;;;;;8.63;5.70;;;;;;;4.22;100.00;96431.88;5034883;28;20068;-74
2024/03/15 00:09:21;;;;;;;7.55;5.10;;;;;;;4.25;100.00;96431.22;5039176;28;20532;-75
2024/03/15 00:11:47;;;;;;;8.38;5.45;;;;;;;4.24;100.00;96437.75;5043527;28;20522;-75
2024/03/15 00:14:13;;;;;;;12.23;5.03;;;;;;;4.21;100.00;96441.94;5021035;28;20482;-74
2024/03/15 00:16:39;;;;;;;9.75;5.22;;;;;;;4.16;100.00;96439.41;5042976;28;20037;-76
2024/03/15 00:19:05;;;;;;;6.43;4.82;;;;;;;4.15;100.00;96440.53;5019183;28;20044;-75
2024/03/15 00:21:31;;;;;;;7.38;4.90;;;;;;;4.11;100.00;96428.75;5031322;28;20041;-76
2024/03/15 00:23:56;;;;;;;9.48;5.38;;;;;;;4.07;100.00;96438.69;5040581;28;20424;-74
2024/03/15 00:26:21;;;;;;;9.35;5.40;;;;;;;3.87;100.00;96434.84;5030194;28;20324;-75
2024/03/15 00:28:47;;;;;;;8.85;5.57;;;;;;;3.59;100.00;96432.63;5039095;28;20049;-74
2024/03/15 00:31:12;;;;;;;9.27;5.85;;;;;;;3.47;100.00;96432.53;5025920;28;20041;-74
2024/03/15 00:33:38;;;;;;;9.75;5.43;;;;;;;3.42;100.00;96433.53;5035537;28;20555;-76
2024/03/15 00:36:04;;;;;;;9.27;5.65;;;;;;;3.40;100.00;96432.25;5033757;28;20056;-76
2024/03/15 00:38:29;;;;;;;12.05;6.00;;;;;;;3.37;100.00;96435.63;5018862;28;20065;-76
2024/03/15 00:40:55;;;;;;;9.30;5.97;;;;;;;3.37;100.00;96430.22;5043944;28;20112;-75
2024/03/15 00:43:21;;;;;;;12.15;6.35;;;;;;;3.46;100.00;96439.06;5036493;28;20361;-76
2024/03/15 00:45:46;;;;;;;13.57;6.93;;;;;;;3.45;100.00;96438.25;5042582;28;20037;-75
2024/03/15 00:48:12;;;;;;;10.02;5.80;;;;;;;3.45;100.00;96434.75;5011076;28;20045;-76
2024/03/15 00:50:39;;;;;;;10.57;6.13;;;;;;;3.57;100.00;96437.56;5020385;28;20053;-74
2024/03/15 00:53:05;;;;;;;12.68;6.57;;;;;;;3.58;100.00;96436.47;5023012;28;20040;-74
2024/03/15 00:55:31;;;;;;;10.02;6.32;;;;;;;3.59;100.00;96437.25;5024328;28;20041;-73
2024/03/15 00:58:00;;;;;;;7.85;5.75;;;;;;;3.72;100.00;96441.63;5025525;28;20785;-73
2024/03/15 01:00:26;;;;;;;9.25;6.35;;;;;;;3.79;100.00;96441.91;5038699;28;20143;-75
2024/03/15 01:02:51;;;;;;;9.10;5.80;;;;;;;3.83;100.00;96440.13;5042366;28;20124;-76
2024/03/15 01:05:18;;;;;;;11.00;6.20;;;;;;;3.95;100.00;96449.44;5016160;28;20076;-75
2024/03/15 01:07:43;;;;;;;9.25;6.25;;;;;;;4.00;100.00;96435.72;5040877;23;20094;-71
2024/03/15 01:10:09;;;;;;;8.70;5.95;;;;;;;4.06;100.00;96436.31;5037994;28;20139;-68
2024/03/15 01:12:34;;;;;;;10.00;6.18;;;;;;;4.04;100.00;96435.84;5055899;28;20142;-69
2024/03/15 01:15:00;;;;;;;10.40;5.63;;;;;;;4.06;100.00;96428.19;5051332;28;20056;-67
2024/03/15 01:17:25;;;;;;;18.67;11.45;;;;;;;4.04;100.00;96428.50;5018043;28;20048;-66
2024/03/15 01:19:50;;;;;;;12.32;5.53;;;;;;;3.92;100.00;96423.78;5029876;28;20084;-69
2024/03/15 01:22:16;;;;;;;8.10;5.22;;;;;;;3.85;100.00;96414.63;5026801;28;20105;-66
2024/03/15 01:24:41;;;;;;;8.32;4.85;;;;;;;3.92;100.00;96414.88;5042178;28;20084;-67
2024/03/15 01:27:07;;;;;;;7.53;4.97;;;;;;;3.87;100.00;96425.91;5037601;28;20055;-69
2024/03/15 01:29:32;;;;;;;9.13;5.53;;;;;;;3.77;100.00;96425.19;5042119;28;20391;-67
2024/03/15 01:31:58;;;;;;;7.15;4.72;;;;;;;3.87;100.00;96418.59;5041375;28;20064;-66
2024/03/15 01:34:23;;;;;;;6.90;4.93;;;;;;;3.80;100.00;96421.81;5030468;28;20041;-67
2024/03/15 01:36:49;;;;;;;7.38;5.15;;;;;;;3.66;100.00;96420.50;5040236;28;20488;-67
2024/03/15 01:39:14;;;;;;;6.70;4.72;;;;;;;3.66;100.00;96415.06;5045148;28;20048;-67
2024/03/15 01:41:39;;;;;;;8.50;4.50;;;;;;;3.72;100.00;96414.53;5045638;28;20056;-68
2024/03/15 01:44:05;;;;;;;9.13;4.78;;;;;;;3.67;100.00;96416.66;5031748;28;20041;-68
2024/03/15 01:46:30;;;;;;;8.40;4.80;;;;;;;3.60;100.00;96417.97;5042193;28;20135;-68
2024/03/15 01:48:59;;;;;;;8.15;5.07;;;;;;;3.69;100.00;96420.63;5033397;28;20057;-68
2024/03/15 01:51:24;;;;;;;9.63;4.90;;;;;;;3.90;100.00;96419.84;5032046;28;20057;-67
2024/03/15 01:53:50;;;;;;;9.20;4.47;;;;;;;3.86;100.00;96410.78;5036497;28;20490;-68
2024/03/15 01:56:15;;;;;;;7.70;5.00;;;;;;;3.87;100.00;96415.06;5024931;28;20056;-69
2024/03/15 01:58:41;;;;;;;10.32;6.25;;;;;;;3.79;100.00;96408.59;5048930;28;20056;-66
2024/03/15 02:01:06;;;;;;;8.15;5.20;;;;;;;3.85;100.00;96425.44;5034909;28;20652;-68
2024/03/15 02:03:31;;;;;;;7.20;5.22;;;;;;;3.77;100.00;96425.19;5032392;28;20427;-67
2024/03/15 02:05:57;;;;;;;8.57;5.10;;;;;;;3.80;100.00;96421.81;5041350;28;20420;-67
2024/03/15 02:08:22;;;;;;;8.25;5.45;;;;;;;3.91;100.00;96422.22;5042937;28;20591;-66
2024/03/15 02:10:48;;;;;;;7.03;4.82;;;;;;;3.94;100.00;96423.47;5023259;28;20060;-67
2024/03/15 02:13:15;;;;;;;10.55;5.25;;;;;;;3.92;100.00;96412.94;5034992;28;20099;-70
2024/03/15 02:15:41;;;;;;;7.32;5.00;;;;;;;3.81;100.00;96420.69;5039640;28;20045;-68
2024/03/15 02:18:07;;;;;;;7.40;5.00;;;;;;;3.57;100.00;96418.63;5008359;28;20053;-69
2024/03/15 02:20:32;;;;;;;13.05;6.63;;;;;;;3.56;100.00;96417.00;5038716;28;20041;-69
2024/03/15 02:22:58;;;;;;;7.45;5.68;;;;;;;3.57;100.00;96424.03;5040278;28;20056;-68
2024/03/15 02:25:24;;;;;;;12.70;5.97;;;;;;;3.50;100.00;96415.63;5012109;28;20044;-68
2024/03/15 02:27:49;;;;;;;9.35;5.75;;;;;;;3.56;100.00;96419.72;5045070;28;20045;-67
2024/03/15 02:30:16;;;;;;;8.55;5.88;;;;;;;3.54;100.00;96421.97;5041579;28;20069;-68
2024/03/15 02:32:42;;;;;;;7.63;5.10;;;;;;;3.54;100.00;96419.25;5040119;28;20419;-69
2024/03/15 02:35:08;;;;;;;9.10;5.53;;;;;;;3.50;100.00;96429.16;5016583;28;20049;-67
2024/03/15 02:37:36;;;;;;;9.35;6.13;;;;;;;3.49;100.00;96424.06;5038874;28;20048;-68
2024/03/15 02:40:03;;;;;;;6.97;5.35;;;;;;;3.45;100.00;96422.00;5040064;28;20051;-71
2024/03/15 02:42:28;;;;;;;11.68;5.70;;;;;;;3.45;100.00;96424.72;5036291;28;20505;-67
2024/03/15 02:44:54;;;;;;;9.63;6.10;;;;;;;3.34;100.00;96420.81;5047591;28;20128;-68
2024/03/15 02:47:20;;;;;;;9.82;6.25;;;;;;;3.25;100.00;96425.47;5043565;28;20033;-67
2024/03/15 02:49:45;;;;;;;10.32;5.68;;;;;;;3.16;100.00;96424.72;5041120;28;20045;-66
2024/03/15 02:52:10;;;;;;;9.57;5.63;;;;;;;3.13;100.00;96433.47;5023971;28;20045;-67
2024/03/15 02:54:36;;;;;;;7.60;5.25;;;;;;;3.17;100.00;96421.69;5033602;28;20042;-68
2024/03/15 02:57:01;;;;;;;9.18;4.88;;;;;;;3.24;100.00;96429.28;5026116;28;20040;-71
2024/03/15 02:59:27;;;;;;;10.43;5.43;;;;;;;3.27;100.00;96425.94;5035984;28;20051;-69
2024/03/15 03:01:52;;;;;;;9.32;6.13;;;;;;;3.39;100.00;96428.75;5038747;28;20051;-67
2024/03/15 03:04:21;;;;;;;10.45;5.80;;;;;;;3.40;100.00;96432.25;5041316;28;20045;-69
2024/03/15 03:06:47;;;;;;;7.93;5.82;;;;;;;3.39;100.00;96427.97;5038559;28;20041;-69
2024/03/15 03:09:17;;;;;;;7.78;5.30;;;;;;;3.45;100.00;96430.13;5033667;28;20037;-69
2024/03/15 03:11:42;;;;;;;12.82;6.05;;;;;;;3.52;100.00;96434.25;5039690;28;20332;-69
2024/03/15 03:14:09;;;;;;;7.80;4.95;;;;;;;3.58;100.00;96427.53;5040695;28;20055;-70
2024/03/15 03:16:35;;;;;;;10.45;5.28;;;;;;;3.60;100.00;96431.50;5048035;28;20037;-68
2024/03/15 03:19:01;;;;;;;8.50;5.45;;;;;;;3.52;100.00;96431.56;5039060;28;20398;-68
2024/03/15 03:21:27;;;;;;;10.80;5.95;;;;;;;3.50;100.00;96436.50;5039977;28;20044;-67
2024/03/15 03:23:56;;;;;;;8.38;5.53;;;;;;;3.43;100.00;96426.97;5042599;28;20041;-67
2024/03/15 03:26:25;;;;;;;9.52;5.35;;;;;;;3.53;100.00;96427.72;5034430;28;20541;-67
2024/03/15 03:28:51;;;;;;;7.13;4.47;;;;;;;3.54;100.00;96437.44;5039258;28;20056;-67
2024/03/15 03:31:16;;;;;;;7.88;5.30;;;;;;;3.42;100.00;96436.22;5020766;28;20037;-67
2024/03/15 03:33:42;;;;;;;9.95;5.93;;;;;;;3.28;100.00;96441.06;5025272;28;20403;-67
2024/03/15 03:36:08;;;;;;;9.70;5.85;;;;;;;3.25;100.00;96436.31;5030462;28;20057;-68
2024/03/15 03:38:34;;;;;;;10.70;5.95;;;;;;;3.38;100.00;96440.69;5038925;28;20040;-67
2024/03/15 03:40:59;;;;;;;11.02;5.30;;;;;;;3.54;100.00;96440.94;5038690;28;20045;-68
2024/03/15 03:43:24;;;;;;;7.95;4.88;;;;;;;3.69;100.00;96450.41;5040917;28;20051;-67
2024/03/15 03:45:50;;;;;;;9.35;5.60;;;;;;;3.69;100.00;96455.03;5046823;28;20048;-70
2024/03/15 03:48:16;;;;;;;8.88;5.30;;;;;;;3.76;100.00;96441.75;5044774;28;20614;-67
2024/03/15 03:50:44;;;;;;;11.15;5.32;;;;;;;3.81;100.00;96455.91;5031904;28;20076;-67
2024/03/15 03:53:10;;;;;;;8.38;5.53;;;;;;;3.91;100.00;96443.13;5025808;28;20053;-68
2024/03/15 03:55:40;;;;;;;7.75;5.25;;;;;;;3.91;100.00;96454.75;5040467;28;20093;-69
2024/03/15 03:58:05;;;;;;;9.50;4.82;;;;;;;3.82;100.00;96452.09;5023411;28;20064;-68
2024/03/15 04:00:34;;;;;;;13.23;5.45;;;;;;;3.67;100.00;96452.63;5018408;28;20129;-69
2024/03/15 04:03:01;;;;;;;9.88;5.05;;;;;;;3.68;100.00;96451.53;5034693;28;20045;-69
2024/03/15 04:05:26;;;;;;;6.90;4.82;;;;;;;3.67;100.00;96454.56;5041022;28;20122;-68
2024/03/15 04:07:53;;;;;;;8.18;5.55;;;;;;;3.66;100.00;96455.69;5041500;28;20052;-69
2024/03/15 04:10:19;;;;;;;9.93;5.35;;;;;;;3.72;100.00;96462.50;5025740;28;20506;-70
2024/03/15 04:12:45;;;;;;;9.38;5.45;;;;;;;3.71;100.00;96461.72;5048995;28;20060;-70
2024/03/15 04:15:11;;;;;;;10.68;5.55;;;;;;;3.79;100.00;96463.56;5019202;28;20041;-68
2024/03/15 04:17:42;;;;;;;10.13;5.60;;;;;;;3.76;100.00;96458.00;5047840;28;20041;-69
2024/03/15 04:20:12;;;;;;;8.13;5.32;;;;;;;3.90;100.00;96455.06;5045097;28;20068;-70
2024/03/15 04:22:42;;;;;;;11.15;5.15;;;;;;;3.93;100.00;96457.13;5040603;28;20037;-69
2024/03/15 04:25:08;;;;;;;7.07;4.85;;;;;;;3.92;100.00;96458.22;5031106;28;20071;-68
2024/03/15 04:27:34;;;;;;;10.50;5.50;;;;;;;3.96;100.00;96448.31;5025770;28;20076;-68
2024/03/15 04:30:13;;;;;;;9.55;5.32;;;;;;;3.79;100.00;96451.94;5009239;28;20067;-70
2024/03/15 04:32:49;;;;;;;9.93;5.65;;;;;;;3.37;100.00;96452.66;5033888;28;20076;-67
2024/03/15 04:35:18;;;;;;;9.00;5.18;;;;;;;3.28;100.00;96460.03;5022367;28;20128;-68
2024/03/15 04:37:44;;;;;;;8.35;6.05;;;;;;;3.32;100.00;96468.28;5042679;28;20051;-68
2024/03/15 04:40:10;;;;;;;11.63;5.55;;;;;;;3.62;100.00;96466.41;5029660;28;20450;-69
2024/03/15 04:42:36;;;;;;;12.18;5.72;;;;;;;3.77;100.00;96473.16;5048657;28;20110;-68
2024/03/15 04:45:04;;;;;;;8.00;5.47;;;;;;;3.81;100.00;96464.03;5028054;28;20053;-71
2024/03/15 04:47:29;;;;;;;12.02;5.85;;;;;;;3.94;100.00;96467.63;5025678;28;20045;-66
2024/03/15 04:49:55;;;;;;;9.07;5.55;;;;;;;3.92;100.00;96467.16;5024337;28;20045;-67
2024/03/15 04:52:22;;;;;;;9.63;5.53;;;;;;;3.92;100.00;96472.56;5037160;28;20053;-68
2024/03/15 04:54:48;;;;;;;8.23;5.07;;;;;;;3.95;100.00;96473.84;5045997;28;20041;-67
2024/03/15 04:57:15;;;;;;;10.82;5.53;;;;;;;4.07;100.00;96473.09;5035183;28;20049;-68
2024/03/15 04:59:40;;;;;;;8.95;5.78;;;;;;;4.06;100.00;96477.75;5048595;28;20049;-68
2024/03/15 05:02:06;;;;;;;10.25;4.82;;;;;;;4.02;100.00;96479.53;5038266;28;20141;-67
2024/03/15 05:04:31;;;;;;;9.45;5.13;;;;;;;4.05;100.00;96472.66;5036898;28;20048;-68
2024/03/15 05:06:57;;;;;;;10.40;5.40;;;;;;;4.07;100.00;96473.09;5032783;28;20049;-68
2024/03/15 05:09:23;;;;;;;9.05;5.20;;;;;;;4.12;100.00;96481.06;5040722;28;20544;-67
2024/03/15 05:11:48;;;;;;;16.08;5.00;;;;;;;4.17;100.00;96476.22;5040399;28;20048;-67
2024/03/15 05:14:14;;;;;;;9.52;5.00;;;;;;;4.29;100.00;96491.78;5035188;28;20199;-68
2024/03/15 05:16:39;;;;;;;7.43;5.00;;;;;;;4.27;100.00;96485.91;5041091;28;20048;-67
2024/03/15 05:19:07;;;;;;;8.18;5.43;;;;;;;4.24;100.00;96483.06;5017629;28;20079;-69
2024/03/15 05:21:36;;;;;;;8.63;5.10;;;;;;;4.27;100.00;96480.47;5049221;28;20040;-69
2024/03/15 05:24:01;;;;;;;9.10;5.30;;;;;;;4.27;100.00;96491.31;5046906;28;20044;-69
2024/03/15 05:26:31;;;;;;;7.60;4.50;;;;;;;4.27;100.00;96493.22;5039817;28;20406;-68
2024/03/15 05:28:56;;;;;;;7.40;4.78;;;;;;;4.33;100.00;96481.84;5041873;28;20124;-69
2024/03/15 05:31:25;;;;;;;7.20;4.60;;;;;;;4.34;100.00;96483.44;5043009;28;20176;-68
2024/03/15 05:33:50;;;;;;;10.80;5.55;;;;;;;4.26;100.00;96484.28;5040476;28;20103;-68
2024/03/15 05:36:16;;;;;;;7.32;5.30;;;;;;;4.13;100.00;96494.28;5027338;28;20839;-69
2024/03/15 05:38:41;;;;;;;9.93;5.25;;;;;;;4.11;100.00;96493.03;5029773;28;20045;-69
2024/03/15 05:41:07;;;;;;;11.23;5.65;;;;;;;4.13;100.00;96501.63;5037918;28;20555;-68
2024/03/15 05:43:32;;;;;;;9.68;4.88;;;;;;;4.16;100.00;96492.81;5046040;28;20043;-69
2024/03/15 05:45:57;;;;;;;10.45;5.10;;;;;;;4.25;100.00;96496.28;5048340;28;20127;-70
2024/03/15 05:48:23;;;;;;;7.88;4.70;;;;;;;4.40;100.00;96495.66;5041861;28;20036;-68
2024/03/15 05:50:49;;;;;;;9.25;5.22;;;;;;;4.59;100.00;96494.38;5044681;28;20080;-68
2024/03/15 05:53:15;;;;;;;11.05;6.07;;;;;;;4.60;100.00;96494.06;5044279;28;20080;-67
2024/03/15 05:55:40;;;;;;;7.68;5.47;;;;;;;4.63;100.00;96492.63;5019592;28;20091;-67
2024/03/15 05:58:06;;;;;;;7.95;5.35;;;;;;;4.64;100.00;96494.19;5029336;28;20049;-70
2024/03/15 06:00:33;;;;;;;8.32;5.25;;;;;;;4.60;100.00;96504.91;5048417;28;20103;-68
2024/03/15 06:03:02;;;;;;;26.35;15.27;;;;;;;4.37;100.00;96509.88;5055574;28;20037;-67
2024/03/15 06:05:28;;;;;;;14.18;9.73;;;;;;;4.21;100.00;96506.19;5042288;28;20056;-69
2024/03/15 06:07:53;;;;;;;12.85;8.52;;;;;;;4.31;100.00;96513.94;5045448;28;20037;-70
2024/03/15 06:10:19;;;;;;;15.55;10.50;;;;;;;4.42;100.00;96514.31;5044462;28;20118;-68
2024/03/15 06:12:44;;;;;;;17.42;9.75;;;;;;;4.54;100.00;96521.75;5034107;28;20046;-68
2024/03/15 06:15:11;;;;;;;10.25;6.97;;;;;;;4.69;100.00;96515.69;5039686;28;20112;-69
2024/03/15 06:17:37;;;;;;;13.75;8.27;;;;;;;4.72;100.00;96519.69;5033674;28;20491;-70
2024/03/15 06:20:03;;;;;;;31.13;11.50;;;;;;;4.86;100.00;96520.19;5036167;28;20071;-69
2024/03/15 06:22:28;;;;;;;13.18;7.00;;;;;;;4.93;100.00;96527.78;5040235;28;20127;-70
2024/03/15 06:24:56;;;;;;;11.85;6.20;;;;;;;5.03;100.00;96527.34;5050492;28;20087;-68
2024/03/15 06:27:21;;;;;;;9.57;5.10;;;;;;;5.13;100.00;96516.09;5035390;28;20549;-68
2024/03/15 06:29:52;;;;;;;9.07;5.88;;;;;;;5.16;100.00;96522.75;5044441;28;20058;-68
2024/03/15 06:32:20;;;;;;;22.73;8.25;;;;;;;5.22;100.00;96523.31;5027669;28;20077;-67
2024/03/15 06:34:45;;;;;;;13.45;6.80;;;;;;;5.25;100.00;96528.09;5042075;28;20045;-68
2024/03/15 06:37:14;;;;;;;9.38;6.20;;;;;;;5.22;100.00;96523.31;5049935;28;20498;-67
2024/03/15 06:42:34;;;;;;;11.55;6.45;;;;;;;5.30;100.00;96519.75;5046915;28;20053;-67
2024/03/15 06:45:03;;;;;;;11.05;5.70;;;;;;;5.26;100.00;96522.34;5049093;28;20578;-66
2024/03/15 06:47:31;;;;;;;9.37;6.10;;;;;;;5.28;100.00;96528.22;5058633;28;20025;-69
2024/03/15 06:50:08;;;;;;;10.73;5.95;;;;;;;5.32;100.00;96523.69;5048567;28;20045;-67
2024/03/15 06:52:36;;;;;;;11.95;6.20;;;;;;;5.48;100.00;96521.13;5035442;28;20041;-67
2024/03/15 06:55:07;;;;;;;11.40;6.13;;;;;;;5.62;100.00;96525.44;5041457;28;20040;-70
2024/03/15 06:57:33;;;;;;;9.75;6.20;;;;;;;5.78;100.00;96523.66;5032626;28;20041;-67
2024/03/15 07:00:00;;;;;;;8.10;5.75;;;;;;;5.93;100.00;96536.53;5039843;28;20305;-67
2024/03/15 07:02:29;;;;;;;11.52;6.88;;;;;;;6.11;100.00;96530.91;5015105;28;20067;-67
2024/03/15 07:04:55;;;;;;;14.70;5.90;;;;;;;6.16;100.00;96527.97;5037853;28;20048;-67
2024/03/15 07:07:20;;;;;;;9.52;6.13;;;;;;;6.27;100.00;96531.00;5026593;28;20053;-67
2024/03/15 07:09:49;;;;;;;10.23;5.47;;;;;;;6.30;100.00;96538.47;5040119;28;20041;-67
2024/03/15 07:12:14;;;;;;;12.02;6.20;;;;;;;6.29;100.00;96536.88;5034913;28;20076;-69
2024/03/15 07:14:41;;;;;;;13.10;6.85;;;;;;;6.43;100.00;96537.31;5038055;28;20067;-69
2024/03/15 07:17:09;;;;;;;9.20;6.30;;;;;;;6.68;100.00;96537.25;5048859;28;20045;-68
2024/03/15 07:19:37;;;;;;;10.77;5.93;;;;;;;6.84;100.00;96535.38;5035377;28;20566;-68
2024/03/15 07:22:03;;;;;;;14.38;6.88;;;;;;;6.86;100.00;96535.84;5032216;28;20135;-70
2024/03/15 07:24:32;;;;;;;9.45;5.82;;;;;;;6.94;100.00;96536.03;5038460;28;20133;-68
2024/03/15 07:26:57;;;;;;;9.73;5.70;;;;;;;7.06;100.00;96539.50;5038949;28;20041;-68
2024/03/15 07:29:23;;;;;;;10.00;5.93;;;;;;;7.13;100.00;96538.91;5023245;28;20045;-68
2024/03/15 07:31:49;;;;;;;7.93;4.60;;;;;;;7.25;100.00;96548.94;5038444;28;20128;-68
2024/03/15 07:34:15;;;;;;;10.50;5.30;;;;;;;7.30;100.00;96545.97;5033300;28;20474;-68
2024/03/15 07:36:40;;;;;;;8.68;4.60;;;;;;;7.34;100.00;96551.50;5030510;28;20136;-68
2024/03/15 07:39:09;;;;;;;12.15;5.68;;;;;;;7.40;100.00;96553.63;5032730;28;20039;-68
2024/03/15 07:41:34;;;;;;;18.15;7.47;;;;;;;7.29;100.00;96541.63;5038476;28;20045;-67
2024/03/15 07:44:00;;;;;;;10.40;6.03;;;;;;;7.25;100.00;96543.47;5032144;28;20118;-67
2024/03/15 07:46:26;;;;;;;10.70;5.57;;;;;;;7.20;100.00;96552.72;5035846;28;20076;-67
2024/03/15 07:48:52;;;;;;;8.30;6.68;;;;;;;7.50;100.00;96549.59;5048501;28;20087;-66
2024/03/15 07:51:18;;;;;;;9.00;5.88;;;;;;;7.54;100.00;96549.69;5059226;23;20076;-74
2024/03/15 07:53:45;;;;;;;11.32;5.95;;;;;;;8.66;100.00;96558.56;5059255;28;20072;-74
2024/03/15 07:56:11;;;;;;;8.02;5.35;;;;;;;10.27;100.00;96556.03;5047569;28;20041;-74
2024/03/15 07:58:37;;;;;;;8.05;4.05;;;;;;;10.65;100.00;96548.78;5062276;28;20050;-73
2024/03/15 08:01:07;;;;;;;5.82;4.10;;;;;;;10.92;100.00;96553.44;5050609;28;20052;-78
2024/03/15 08:03:34;;;;;;;21.90;13.82;;;;;;;11.15;100.00;96556.06;5036085;28;20063;-75
2024/03/15 08:06:00;;;;;;;18.15;13.88;;;;;;;12.03;100.00;96555.41;5043406;28;20068;-75
2024/03/15 08:08:30;;;;;;;8.82;7.05;;;;;;;12.78;100.00;96555.13;5047720;28;20051;-75
2024/03/15 08:10:56;;;;;;;9.10;6.00;;;;;;;12.44;100.00;96565.50;5051140;28;20528;-75
2024/03/15 08:13:25;;;;;;;12.82;7.38;;;;;;;12.74;100.00;96572.75;5044307;28;20324;-74
2024/03/15 08:16:18;;;;;;;17.45;7.63;;;;;;;13.64;100.00;96564.91;5035607;28;20134;-76
2024/03/15 08:18:49;;;;;;;25.48;10.18;;;;;;;14.96;100.00;96579.84;5051157;28;20098;-77
2024/03/15 08:21:17;;;;;;;35.05;15.65;;;;;;;15.68;95.94;96583.06;5027043;28;20048;-75
2024/03/15 08:23:44;;;;;;;19.30;9.88;;;;;;;16.96;85.57;96582.50;5055525;28;20044;-75
2024/03/15 08:26:13;;;;;;;16.52;8.77;;;;;;;16.54;88.47;96585.25;5064204;28;20047;-75
2024/03/15 08:28:40;;;;;;;11.48;5.32;;;;;;;16.36;82.00;96593.69;5055213;28;20131;-74
2024/03/15 08:31:06;;;;;;;8.82;3.90;;;;;;;15.47;92.66;96589.50;5042816;28;20049;-77
2024/03/15 08:33:31;;;;;;;20.58;7.63;;;;;;;15.41;89.63;96586.38;5032453;28;20136;-77
2024/03/15 08:35:57;;;;;;;9.25;4.22;;;;;;;14.63;88.91;96595.66;5048300;28;20143;-75
2024/03/15 08:38:23;;;;;;;9.57;3.47;;;;;;;14.34;95.56;96587.38;5038382;28;20037;-76
2024/03/15 08:40:48;;;;;;;11.10;3.83;;;;;;;14.41;98.45;96592.13;5047118;28;20090;-75
2024/03/15 08:43:14;;;;;;;8.88;3.22;;;;;;;14.60;97.46;96588.19;5058282;28;20040;-75
2024/03/15 08:45:40;;;;;;;9.43;3.70;;;;;;;14.77;98.20;96581.84;5066286;28;20080;-75
2024/03/15 08:48:07;;;;;;;5.55;2.90;;;;;;;14.74;93.84;96585.41;5028025;28;20040;-75
2024/03/15 08:50:32;;;;;;;5.22;2.63;;;;;;;14.50;98.55;96596.03;5063992;28;20040;-74
2024/03/15 08:52:59;;;;;;;7.85;2.90;;;;;;;14.71;95.86;96592.50;5063651;28;20131;-75
2024/03/15 08:55:24;;;;;;;6.05;3.00;;;;;;;14.93;95.82;96589.69;5057145;28;20055;-74
2024/03/15 08:57:50;;;;;;;8.75;2.83;;;;;;;14.94;94.80;96583.00;5058277;28;20040;-75
2024/03/15 09:00:16;;;;;;;7.53;2.90;;;;;;;14.81;98.40;96581.84;5022777;28;20028;-76
2024/03/15 09:02:42;;;;;;;5.85;2.85;;;;;;;13.92;100.00;96592.47;5043896;28;20053;-76
2024/03/15 09:05:10;;;;;;;6.65;3.00;;;;;;;14.03;100.00;96586.97;5042647;28;20099;-76
2024/03/15 09:07:36;;;;;;;9.20;3.42;;;;;;;14.05;100.00;96592.09;5038488;28;20677;-76
2024/03/15 09:10:13;;;;;;;4.70;2.80;;;;;;;14.67;98.26;96591.69;5028430;28;20055;-77
2024/03/15 09:12:40;;;;;;;3.70;2.30;;;;;;;14.97;94.79;96595.22;5037021;28;20395;-76
2024/03/15 09:15:08;;;;;;;6.25;2.30;;;;;;;15.13;94.84;96595.56;5057572;28;20056;-76
2024/03/15 09:17:33;;;;;;;3.95;2.80;;;;;;;15.66;91.06;96588.22;5062418;28;20047;-76
2024/03/15 09:19:59;;;;;;;6.28;2.58;;;;;;;16.71;79.49;96597.34;5064716;28;20042;-75
2024/03/15 09:22:25;;;;;;;8.32;2.65;;;;;;;17.52;76.55;96602.41;5046035;28;20037;-76
2024/03/15 09:24:51;;;;;;;6.05;2.22;;;;;;;18.12;66.00;96615.88;5024410;28;20087;-77
2024/03/15 09:27:17;;;;;;;6.25;2.83;;;;;;;18.08;66.96;96617.94;5042892;28;20037;-75
2024/03/15 09:29:49;;;;;;;7.38;2.72;;;;;;;18.58;65.25;96614.34;5050020;28;20091;-76
2024/03/15 09:32:15;;;;;;;4.07;2.42;;;;;;;18.78;60.84;96617.22;5033488;28;20043;-75
2024/03/15 09:34:45;;;;;;;4.72;2.58;;;;;;;19.43;58.92;96621.59;5045146;28;20213;-75
2024/03/15 09:37:14;;;;;;;12.55;2.75;;;;;;;20.07;55.79;96630.56;5040289;28;20041;-76
2024/03/15 09:39:42;;;;;;;3.83;2.50;;;;;;;19.99;54.08;96620.84;5057484;28;20024;-76
2024/03/15 09:42:20;;;;;;;13.95;3.67;;;;;;;20.12;56.26;96618.19;5050446;28;20048;-75
2024/03/15 09:44:48;;;;;;;7.60;2.70;;;;;;;20.17;55.67;96607.31;5052846;28;20103;-76
2024/03/15 09:47:14;;;;;;;4.53;2.50;;;;;;;20.37;55.52;96620.38;5060221;28;20040;-76
2024/03/15 09:49:42;;;;;;;6.05;2.92;;;;;;;20.86;52.79;96611.25;5067392;28;20151;-75
2024/03/15 09:52:09;;;;;;;5.63;2.20;;;;;;;20.07;54.63;96613.13;5056342;28;20106;-75
2024/03/15 09:54:35;;;;;;;5.82;2.33;;;;;;;20.42;54.34;96614.31;5060099;28;20047;-75
2024/03/15 09:57:04;;;;;;;5.50;2.00;;;;;;;20.39;53.83;96609.59;5058812;28;20153;-78
2024/03/15 09:59:34;;;;;;;14.90;3.05;;;;;;;20.42;51.96;96623.41;5042326;28;20498;-76
2024/03/15 10:01:59;;;;;;;;;;;;;;;20.60;52.22;96620.22;5061316;28;20044;-77
2024/03/15 10:04:26;;;;;;;4.45;2.22;;;;;;;20.37;52.49;96620.38;5054313;28;19943;-75
2024/03/15 10:06:51;;;;;;;4.85;2.17;;;;;;;20.08;54.69;96607.13;5053370;28;20119;-76
2024/03/15 10:09:17;;;;;;;6.82;2.30;;;;;;;20.32;53.23;96612.53;5052580;28;20517;-76
2024/03/15 10:11:43;;;;;;;16.60;3.13;;;;;;;20.48;53.84;96611.78;5061210;28;20033;-74
2024/03/15 10:14:08;;;;;;;7.93;3.35;;;;;;;20.88;51.41;96612.38;5056375;28;20437;-74
2024/03/15 10:16:37;;;;;;;11.18;3.72;;;;;;;21.39;49.22;96609.00;5043175;28;20394;-74
2024/03/15 10:19:05;;;;;;;5.97;3.15;;;;;;;20.75;50.97;96611.53;5056285;28;20435;-76
2024/03/15 10:21:31;;;;;;;7.45;3.25;;;;;;;20.09;52.58;96608.69;5049873;28;20044;-75
2024/03/15 10:23:58;;;;;;;4.55;2.80;;;;;;;20.17;54.19;96609.31;5061048;28;20127;-75
2024/03/15 10:26:23;;;;;;;8.98;3.53;;;;;;;19.79;55.42;96605.00;5036198;28;20032;-75
2024/03/15 10:28:49;;;;;;;10.15;3.50;;;;;;;19.17;57.62;96601.06;5039104;28;20052;-75
2024/03/15 10:31:14;;;;;;;6.00;2.92;;;;;;;19.54;56.18;96599.94;5035755;28;20037;-75
2024/03/15 10:33:40;;;;;;;7.78;2.95;;;;;;;18.89;60.51;96595.63;5058617;28;20033;-75
2024/03/15 10:36:08;;;;;;;6.53;2.95;;;;;;;18.65;61.46;96596.81;5025973;28;20124;-74
2024/03/15 10:38:34;;;;;;;7.03;3.50;;;;;;;18.52;61.86;96593.88;5058240;28;20095;-75
2024/03/15 10:40:59;;;;;;;6.85;3.45;;;;;;;18.42;63.23;96603.94;5058490;28;20048;-75
2024/03/15 10:43:25;;;;;;;8.70;3.45;;;;;;;18.56;65.27;96596.56;5040502;28;20502;-73
2024/03/15 10:45:52;;;;;;;5.60;3.38;;;;;;;18.56;66.03;96594.56;5022049;28;20572;-74
2024/03/15 10:48:19;;;;;;;5.95;3.20;;;;;;;18.38;65.93;96597.66;5043899;28;20159;-74
2024/03/15 10:50:46;;;;;;;5.43;3.22;;;;;;;18.37;67.82;96589.78;5041028;28;20106;-75
2024/03/15 10:53:15;;;;;;;5.88;3.55;;;;;;;18.43;67.23;96593.63;5057727;28;20044;-74
2024/03/15 10:55:44;;;;;;;7.20;4.20;;;;;;;18.21;72.88;96587.66;5060016;28;20033;-75
2024/03/15 10:58:11;;;;;;;14.35;4.32;;;;;;;18.53;68.22;96589.91;5048018;28;20091;-73
2024/03/15 11:00:38;;;;;;;6.43;3.72;;;;;;;18.47;70.43;96586.03;5050193;28;20032;-75
2024/03/15 11:03:33;;;;;;;9.30;4.45;;;;;;;18.84;70.31;96582.25;5056319;28;20391;-75
2024/03/15 11:06:02;;;;;;;6.28;3.90;;;;;;;19.33;68.64;96583.69;5059860;28;20093;-74
2024/03/15 11:08:33;;;;;;;7.73;3.90;;;;;;;19.36;66.84;96586.41;5055515;28;20131;-74
2024/03/15 11:11:07;;;;;;;8.68;3.17;;;;;;;19.06;68.51;96581.84;5049145;28;20155;-74
2024/03/15 11:13:34;;;;;;;8.13;3.58;;;;;;;18.08;71.81;96579.13;5059530;28;20126;-75
2024/03/15 11:15:59;;;;;;;5.47;3.30;;;;;;;17.99;73.13;96581.63;5023999;28;20047;-74
2024/03/15 11:18:35;;;;;;;8.30;4.10;;;;;;;17.91;76.86;96567.88;5054970;28;20040;-73
2024/03/15 11:21:00;;;;;;;8.38;4.07;;;;;;;17.86;76.05;96570.34;5060880;28;20578;-74
2024/03/15 11:23:27;;;;;;;9.00;4.05;;;;;;;18.12;78.31;96575.09;5037829;28;20043;-74
2024/03/15 11:26:07;;;;;;;10.10;4.13;;;;;;;18.02;76.65;96564.16;5042429;28;20040;-74
2024/03/15 11:28:35;;;;;;;7.43;4.18;;;;;;;17.66;78.01;96562.66;5038037;28;20047;-74
2024/03/15 11:31:00;;;;;;;10.65;4.70;;;;;;;17.89;79.45;96561.19;5049874;28;20182;-75